sensor_id;sensor_type;location;lat;lon;timestamp;P1;durP1;ratioP1;P2;durP2;ratioP2
16612;SDS011;8419;52.358;9.752;2023-04-25T00:02:17;7.12;;;2.65;;
16612;SDS011;8419;52.358;9.752;2023-04-25T00:05:11;5.90;;;2.87;;
16612;SDS011;8419;52.358;9.752;2023-04-25T00:07:59;12.43;;;3.78;;
16612;SDS011;8419;52.358;9.752;2023-04-25T00:10:44;7.05;;;3.53;;
16612;SDS011;8419;52.358;9.752;2023-04-25T00:13:31;2.62;;;1.70;;
16612;SDS011;8419;52.358;9.752;2023-04-25T00:16:17;4.55;;;2.35;;
16612;SDS011;8419;52.358;9.752;2023-04-25T00:19:03;7.93;;;3.92;;
16612;SDS011;8419;52.358;9.752;2023-04-25T00:21:49;9.68;;;2.78;;
16612;SDS011;8419;52.358;9.752;2023-04-25T00:24:35;7.50;;;3.03;;
16612;SDS011;8419;52.358;9.752;2023-04-25T00:27:20;7.20;;;2.97;;
16612;SDS011;8419;52.358;9.752;2023-04-25T00:30:07;6.32;;;2.55;;
16612;SDS011;8419;52.358;9.752;2023-04-25T00:32:56;7.70;;;2.87;;
16612;SDS011;8419;52.358;9.752;2023-04-25T00:35:42;5.95;;;3.05;;
16612;SDS011;8419;52.358;9.752;2023-04-25T00:38:28;5.78;;;2.83;;
16612;SDS011;8419;52.358;9.752;2023-04-25T00:41:13;3.45;;;1.50;;
16612;SDS011;8419;52.358;9.752;2023-04-25T00:43:59;3.47;;;2.30;;
16612;SDS011;8419;52.358;9.752;2023-04-25T00:46:48;4.15;;;2.33;;
16612;SDS011;8419;52.358;9.752;2023-04-25T00:49:34;10.10;;;3.28;;
16612;SDS011;8419;52.358;9.752;2023-04-25T00:52:20;7.22;;;3.30;;
16612;SDS011;8419;52.358;9.752;2023-04-25T00:55:06;9.57;;;2.67;;
16612;SDS011;8419;52.358;9.752;2023-04-25T00:57:52;5.12;;;3.10;;
16612;SDS011;8419;52.358;9.752;2023-04-25T01:00:38;5.07;;;2.55;;
16612;SDS011;8419;52.358;9.752;2023-04-25T01:03:25;4.68;;;2.80;;
16612;SDS011;8419;52.358;9.752;2023-04-25T01:06:13;6.65;;;2.62;;
16612;SDS011;8419;52.358;9.752;2023-04-25T01:09:00;3.80;;;1.55;;
16612;SDS011;8419;52.358;9.752;2023-04-25T01:11:47;6.55;;;3.17;;
16612;SDS011;8419;52.358;9.752;2023-04-25T01:14:33;7.43;;;3.78;;
16612;SDS011;8419;52.358;9.752;2023-04-25T01:17:18;8.95;;;3.80;;
16612;SDS011;8419;52.358;9.752;2023-04-25T01:20:05;9.02;;;3.80;;
16612;SDS011;8419;52.358;9.752;2023-04-25T01:22:53;6.57;;;3.20;;
16612;SDS011;8419;52.358;9.752;2023-04-25T01:25:40;11.35;;;2.83;;
16612;SDS011;8419;52.358;9.752;2023-04-25T01:28:26;9.55;;;4.40;;
16612;SDS011;8419;52.358;9.752;2023-04-25T01:31:12;7.22;;;3.90;;
16612;SDS011;8419;52.358;9.752;2023-04-25T01:34:00;8.18;;;3.47;;
16612;SDS011;8419;52.358;9.752;2023-04-25T01:36:47;7.35;;;2.95;;
16612;SDS011;8419;52.358;9.752;2023-04-25T01:39:37;6.80;;;2.17;;
16612;SDS011;8419;52.358;9.752;2023-04-25T01:42:23;7.45;;;3.67;;
16612;SDS011;8419;52.358;9.752;2023-04-25T01:45:09;8.75;;;3.95;;
16612;SDS011;8419;52.358;9.752;2023-04-25T01:47:56;9.70;;;3.62;;
16612;SDS011;8419;52.358;9.752;2023-04-25T01:50:43;5.05;;;2.33;;
16612;SDS011;8419;52.358;9.752;2023-04-25T01:53:30;7.82;;;3.28;;
16612;SDS011;8419;52.358;9.752;2023-04-25T01:56:16;7.20;;;3.97;;
16612;SDS011;8419;52.358;9.752;2023-04-25T01:59:05;11.02;;;3.58;;
16612;SDS011;8419;52.358;9.752;2023-04-25T02:01:52;4.00;;;2.17;;
16612;SDS011;8419;52.358;9.752;2023-04-25T02:04:38;7.82;;;3.72;;
16612;SDS011;8419;52.358;9.752;2023-04-25T02:07:23;5.50;;;3.65;;
16612;SDS011;8419;52.358;9.752;2023-04-25T02:10:10;8.02;;;3.70;;
16612;SDS011;8419;52.358;9.752;2023-04-25T02:12:56;8.82;;;4.03;;
16612;SDS011;8419;52.358;9.752;2023-04-25T02:15:43;5.78;;;3.53;;
16612;SDS011;8419;52.358;9.752;2023-04-25T02:18:29;6.90;;;3.53;;
16612;SDS011;8419;52.358;9.752;2023-04-25T02:21:15;6.22;;;3.30;;
16612;SDS011;8419;52.358;9.752;2023-04-25T02:24:00;8.43;;;3.25;;
16612;SDS011;8419;52.358;9.752;2023-04-25T02:26:46;4.35;;;1.50;;
16612;SDS011;8419;52.358;9.752;2023-04-25T02:29:34;6.78;;;3.30;;
16612;SDS011;8419;52.358;9.752;2023-04-25T02:32:20;4.10;;;2.45;;
16612;SDS011;8419;52.358;9.752;2023-04-25T02:35:06;7.25;;;3.08;;
16612;SDS011;8419;52.358;9.752;2023-04-25T02:37:52;7.37;;;2.60;;
16612;SDS011;8419;52.358;9.752;2023-04-25T02:40:38;8.82;;;3.20;;
16612;SDS011;8419;52.358;9.752;2023-04-25T02:43:23;6.97;;;1.95;;
16612;SDS011;8419;52.358;9.752;2023-04-25T02:46:09;4.93;;;1.52;;
16612;SDS011;8419;52.358;9.752;2023-04-25T02:48:54;4.15;;;2.12;;
16612;SDS011;8419;52.358;9.752;2023-04-25T02:51:40;6.53;;;2.37;;
16612;SDS011;8419;52.358;9.752;2023-04-25T02:54:25;5.18;;;2.10;;
16612;SDS011;8419;52.358;9.752;2023-04-25T02:57:10;11.00;;;2.97;;
16612;SDS011;8419;52.358;9.752;2023-04-25T02:59:55;10.10;;;2.83;;
16612;SDS011;8419;52.358;9.752;2023-04-25T03:02:41;5.85;;;2.22;;
16612;SDS011;8419;52.358;9.752;2023-04-25T03:05:26;6.85;;;2.53;;
16612;SDS011;8419;52.358;9.752;2023-04-25T03:08:13;5.05;;;1.92;;
16612;SDS011;8419;52.358;9.752;2023-04-25T03:10:58;6.90;;;2.40;;
16612;SDS011;8419;52.358;9.752;2023-04-25T03:13:45;5.47;;;2.20;;
16612;SDS011;8419;52.358;9.752;2023-04-25T03:16:30;14.07;;;2.67;;
16612;SDS011;8419;52.358;9.752;2023-04-25T03:19:15;8.23;;;2.25;;
16612;SDS011;8419;52.358;9.752;2023-04-25T03:22:02;7.82;;;2.62;;
16612;SDS011;8419;52.358;9.752;2023-04-25T03:24:48;9.45;;;2.50;;
16612;SDS011;8419;52.358;9.752;2023-04-25T03:27:34;6.97;;;2.50;;
16612;SDS011;8419;52.358;9.752;2023-04-25T03:30:19;5.05;;;2.35;;
16612;SDS011;8419;52.358;9.752;2023-04-25T03:33:05;11.23;;;3.25;;
16612;SDS011;8419;52.358;9.752;2023-04-25T03:35:51;12.30;;;2.75;;
16612;SDS011;8419;52.358;9.752;2023-04-25T03:38:36;5.57;;;2.42;;
16612;SDS011;8419;52.358;9.752;2023-04-25T03:41:25;6.47;;;2.65;;
16612;SDS011;8419;52.358;9.752;2023-04-25T03:44:10;11.23;;;3.08;;
16612;SDS011;8419;52.358;9.752;2023-04-25T03:46:56;7.12;;;2.45;;
16612;SDS011;8419;52.358;9.752;2023-04-25T03:49:41;11.68;;;3.65;;
16612;SDS011;8419;52.358;9.752;2023-04-25T03:52:26;7.03;;;3.05;;
16612;SDS011;8419;52.358;9.752;2023-04-25T03:55:12;12.90;;;2.62;;
16612;SDS011;8419;52.358;9.752;2023-04-25T03:57:58;11.10;;;3.05;;
16612;SDS011;8419;52.358;9.752;2023-04-25T04:00:43;8.90;;;2.55;;
16612;SDS011;8419;52.358;9.752;2023-04-25T04:03:29;5.72;;;2.15;;
16612;SDS011;8419;52.358;9.752;2023-04-25T04:06:14;15.32;;;2.87;;
16612;SDS011;8419;52.358;9.752;2023-04-25T04:09:00;7.87;;;1.70;;
16612;SDS011;8419;52.358;9.752;2023-04-25T04:11:45;10.20;;;2.35;;
16612;SDS011;8419;52.358;9.752;2023-04-25T04:14:32;7.53;;;3.12;;
16612;SDS011;8419;52.358;9.752;2023-04-25T04:17:17;9.68;;;2.10;;
16612;SDS011;8419;52.358;9.752;2023-04-25T04:20:06;8.07;;;2.65;;
16612;SDS011;8419;52.358;9.752;2023-04-25T04:22:52;8.23;;;2.95;;
16612;SDS011;8419;52.358;9.752;2023-04-25T04:25:39;8.40;;;3.15;;
16612;SDS011;8419;52.358;9.752;2023-04-25T04:28:25;13.02;;;3.05;;
16612;SDS011;8419;52.358;9.752;2023-04-25T04:31:11;9.68;;;2.97;;
16612;SDS011;8419;52.358;9.752;2023-04-25T04:34:01;15.43;;;3.08;;
16612;SDS011;8419;52.358;9.752;2023-04-25T04:36:47;10.68;;;2.78;;
16612;SDS011;8419;52.358;9.752;2023-04-25T04:39:33;12.45;;;3.25;;
16612;SDS011;8419;52.358;9.752;2023-04-25T04:42:18;12.48;;;2.53;;
16612;SDS011;8419;52.358;9.752;2023-04-25T04:45:04;6.55;;;2.75;;
16612;SDS011;8419;52.358;9.752;2023-04-25T04:47:51;13.25;;;3.37;;
16612;SDS011;8419;52.358;9.752;2023-04-25T04:50:39;9.10;;;3.00;;
16612;SDS011;8419;52.358;9.752;2023-04-25T04:53:25;10.95;;;3.08;;
16612;SDS011;8419;52.358;9.752;2023-04-25T04:56:11;7.18;;;2.30;;
16612;SDS011;8419;52.358;9.752;2023-04-25T04:58:56;10.85;;;2.72;;
16612;SDS011;8419;52.358;9.752;2023-04-25T05:01:43;5.43;;;1.58;;
16612;SDS011;8419;52.358;9.752;2023-04-25T05:04:30;6.35;;;1.58;;
16612;SDS011;8419;52.358;9.752;2023-04-25T05:07:15;5.93;;;2.72;;
16612;SDS011;8419;52.358;9.752;2023-04-25T05:10:01;7.75;;;2.55;;
16612;SDS011;8419;52.358;9.752;2023-04-25T05:12:47;7.03;;;2.83;;
16612;SDS011;8419;52.358;9.752;2023-04-25T05:15:33;11.27;;;2.70;;
16612;SDS011;8419;52.358;9.752;2023-04-25T05:18:19;10.60;;;3.80;;
16612;SDS011;8419;52.358;9.752;2023-04-25T05:21:04;11.57;;;2.60;;
16612;SDS011;8419;52.358;9.752;2023-04-25T05:23:56;9.68;;;3.05;;
16612;SDS011;8419;52.358;9.752;2023-04-25T05:26:41;14.93;;;3.33;;
16612;SDS011;8419;52.358;9.752;2023-04-25T05:29:27;7.80;;;2.67;;
16612;SDS011;8419;52.358;9.752;2023-04-25T05:32:12;13.50;;;2.58;;
16612;SDS011;8419;52.358;9.752;2023-04-25T05:34:58;10.32;;;3.03;;
16612;SDS011;8419;52.358;9.752;2023-04-25T05:37:43;8.57;;;3.00;;
16612;SDS011;8419;52.358;9.752;2023-04-25T05:40:29;8.13;;;3.72;;
16612;SDS011;8419;52.358;9.752;2023-04-25T05:43:14;10.77;;;2.62;;
16612;SDS011;8419;52.358;9.752;2023-04-25T05:46:02;11.10;;;3.00;;
16612;SDS011;8419;52.358;9.752;2023-04-25T05:48:48;12.77;;;2.70;;
16612;SDS011;8419;52.358;9.752;2023-04-25T05:51:34;9.60;;;2.50;;
16612;SDS011;8419;52.358;9.752;2023-04-25T05:54:19;8.88;;;2.60;;
16612;SDS011;8419;52.358;9.752;2023-04-25T05:57:05;14.93;;;2.80;;
16612;SDS011;8419;52.358;9.752;2023-04-25T05:59:54;9.32;;;1.80;;
16612;SDS011;8419;52.358;9.752;2023-04-25T06:02:39;4.93;;;2.10;;
16612;SDS011;8419;52.358;9.752;2023-04-25T06:05:29;4.53;;;1.65;;
16612;SDS011;8419;52.358;9.752;2023-04-25T06:08:16;5.50;;;1.52;;
16612;SDS011;8419;52.358;9.752;2023-04-25T06:11:01;12.07;;;3.15;;
16612;SDS011;8419;52.358;9.752;2023-04-25T06:13:46;8.13;;;2.20;;
16612;SDS011;8419;52.358;9.752;2023-04-25T06:16:32;7.75;;;1.67;;
16612;SDS011;8419;52.358;9.752;2023-04-25T06:19:17;15.02;;;2.37;;
16612;SDS011;8419;52.358;9.752;2023-04-25T06:22:02;3.95;;;1.05;;
16612;SDS011;8419;52.358;9.752;2023-04-25T06:24:48;12.55;;;2.97;;
16612;SDS011;8419;52.358;9.752;2023-04-25T06:27:33;11.65;;;2.30;;
16612;SDS011;8419;52.358;9.752;2023-04-25T06:30:18;9.38;;;2.33;;
16612;SDS011;8419;52.358;9.752;2023-04-25T06:33:06;9.65;;;2.15;;
16612;SDS011;8419;52.358;9.752;2023-04-25T06:35:56;11.52;;;1.95;;
16612;SDS011;8419;52.358;9.752;2023-04-25T06:38:42;12.57;;;3.03;;
16612;SDS011;8419;52.358;9.752;2023-04-25T06:41:27;9.73;;;2.25;;
16612;SDS011;8419;52.358;9.752;2023-04-25T06:44:13;1.95;;;1.00;;
16612;SDS011;8419;52.358;9.752;2023-04-25T06:46:59;6.40;;;2.17;;
16612;SDS011;8419;52.358;9.752;2023-04-25T06:49:45;5.12;;;1.62;;
16612;SDS011;8419;52.358;9.752;2023-04-25T06:52:30;12.65;;;2.30;;
16612;SDS011;8419;52.358;9.752;2023-04-25T06:55:17;6.87;;;1.70;;
16612;SDS011;8419;52.358;9.752;2023-04-25T06:58:05;5.57;;;1.55;;
16612;SDS011;8419;52.358;9.752;2023-04-25T07:00:53;8.35;;;3.03;;
16612;SDS011;8419;52.358;9.752;2023-04-25T07:03:38;8.48;;;1.90;;
16612;SDS011;8419;52.358;9.752;2023-04-25T07:06:23;6.82;;;2.28;;
16612;SDS011;8419;52.358;9.752;2023-04-25T07:09:12;6.00;;;1.75;;
16612;SDS011;8419;52.358;9.752;2023-04-25T07:12:02;7.68;;;2.15;;
16612;SDS011;8419;52.358;9.752;2023-04-25T07:14:48;4.35;;;1.62;;
16612;SDS011;8419;52.358;9.752;2023-04-25T07:17:33;7.37;;;2.60;;
16612;SDS011;8419;52.358;9.752;2023-04-25T07:20:18;6.97;;;1.87;;
16612;SDS011;8419;52.358;9.752;2023-04-25T07:23:05;4.68;;;1.23;;
16612;SDS011;8419;52.358;9.752;2023-04-25T07:25:50;4.15;;;1.55;;
16612;SDS011;8419;52.358;9.752;2023-04-25T07:28:36;4.78;;;1.98;;
16612;SDS011;8419;52.358;9.752;2023-04-25T07:31:21;4.32;;;1.08;;
16612;SDS011;8419;52.358;9.752;2023-04-25T07:34:07;9.15;;;2.20;;
16612;SDS011;8419;52.358;9.752;2023-04-25T07:36:57;6.43;;;1.95;;
16612;SDS011;8419;52.358;9.752;2023-04-25T07:39:43;7.93;;;1.92;;
16612;SDS011;8419;52.358;9.752;2023-04-25T07:42:31;8.82;;;2.22;;
16612;SDS011;8419;52.358;9.752;2023-04-25T07:45:19;5.55;;;1.37;;
16612;SDS011;8419;52.358;9.752;2023-04-25T07:48:04;6.07;;;2.20;;
16612;SDS011;8419;52.358;9.752;2023-04-25T07:50:50;11.73;;;2.83;;
16612;SDS011;8419;52.358;9.752;2023-04-25T07:53:35;3.28;;;2.15;;
16612;SDS011;8419;52.358;9.752;2023-04-25T07:56:22;1.87;;;1.05;;
16612;SDS011;8419;52.358;9.752;2023-04-25T07:59:08;5.28;;;1.65;;
16612;SDS011;8419;52.358;9.752;2023-04-25T08:01:53;4.72;;;1.62;;
16612;SDS011;8419;52.358;9.752;2023-04-25T08:04:41;8.27;;;1.77;;
16612;SDS011;8419;52.358;9.752;2023-04-25T08:07:26;3.47;;;1.58;;
16612;SDS011;8419;52.358;9.752;2023-04-25T08:10:13;4.05;;;1.98;;
16612;SDS011;8419;52.358;9.752;2023-04-25T08:12:59;5.80;;;1.87;;
16612;SDS011;8419;52.358;9.752;2023-04-25T08:19:50;5.82;;;1.87;;
16612;SDS011;8419;52.358;9.752;2023-04-25T08:22:51;11.50;;;1.40;;
16612;SDS011;8419;52.358;9.752;2023-04-25T08:25:36;6.40;;;1.60;;
16612;SDS011;8419;52.358;9.752;2023-04-25T08:28:22;5.62;;;2.05;;
16612;SDS011;8419;52.358;9.752;2023-04-25T08:31:07;4.20;;;1.70;;
16612;SDS011;8419;52.358;9.752;2023-04-25T08:33:53;3.33;;;1.25;;
16612;SDS011;8419;52.358;9.752;2023-04-25T08:40:48;5.82;;;1.52;;
16612;SDS011;8419;52.358;9.752;2023-04-25T08:43:35;6.97;;;1.30;;
16612;SDS011;8419;52.358;9.752;2023-04-25T08:46:21;2.87;;;1.60;;
16612;SDS011;8419;52.358;9.752;2023-04-25T08:49:09;6.95;;;1.65;;
16612;SDS011;8419;52.358;9.752;2023-04-25T08:51:56;2.42;;;0.77;;
16612;SDS011;8419;52.358;9.752;2023-04-25T08:54:45;8.73;;;1.55;;
16612;SDS011;8419;52.358;9.752;2023-04-25T08:57:33;7.62;;;1.70;;
16612;SDS011;8419;52.358;9.752;2023-04-25T09:00:19;5.03;;;1.62;;
16612;SDS011;8419;52.358;9.752;2023-04-25T09:03:05;4.90;;;1.45;;
16612;SDS011;8419;52.358;9.752;2023-04-25T09:05:51;5.10;;;1.48;;
16612;SDS011;8419;52.358;9.752;2023-04-25T09:08:37;6.53;;;1.27;;
16612;SDS011;8419;52.358;9.752;2023-04-25T09:11:24;4.60;;;1.37;;
16612;SDS011;8419;52.358;9.752;2023-04-25T09:14:10;0.68;;;0.43;;
16612;SDS011;8419;52.358;9.752;2023-04-25T09:17:05;2.50;;;1.08;;
16612;SDS011;8419;52.358;9.752;2023-04-25T09:19:51;5.90;;;1.10;;
16612;SDS011;8419;52.358;9.752;2023-04-25T09:22:37;1.15;;;0.60;;
16612;SDS011;8419;52.358;9.752;2023-04-25T09:25:22;2.75;;;0.73;;
16612;SDS011;8419;52.358;9.752;2023-04-25T09:28:10;2.30;;;0.80;;
16612;SDS011;8419;52.358;9.752;2023-04-25T09:30:56;2.17;;;0.62;;
16612;SDS011;8419;52.358;9.752;2023-04-25T09:33:41;4.78;;;0.93;;
16612;SDS011;8419;52.358;9.752;2023-04-25T09:36:29;0.35;;;0.35;;
16612;SDS011;8419;52.358;9.752;2023-04-25T09:39:17;1.65;;;1.12;;
16612;SDS011;8419;52.358;9.752;2023-04-25T09:42:05;4.32;;;1.15;;
16612;SDS011;8419;52.358;9.752;2023-04-25T09:44:53;1.45;;;0.57;;
16612;SDS011;8419;52.358;9.752;2023-04-25T09:47:40;0.90;;;0.45;;
16612;SDS011;8419;52.358;9.752;2023-04-25T09:50:28;2.65;;;0.70;;
16612;SDS011;8419;52.358;9.752;2023-04-25T09:53:14;5.35;;;1.17;;
16612;SDS011;8419;52.358;9.752;2023-04-25T09:56:00;1.25;;;0.80;;
16612;SDS011;8419;52.358;9.752;2023-04-25T09:58:47;2.20;;;1.00;;
16612;SDS011;8419;52.358;9.752;2023-04-25T10:01:38;3.12;;;0.77;;
16612;SDS011;8419;52.358;9.752;2023-04-25T10:04:25;3.20;;;1.12;;
16612;SDS011;8419;52.358;9.752;2023-04-25T10:07:16;4.18;;;0.77;;
16612;SDS011;8419;52.358;9.752;2023-04-25T10:10:04;1.30;;;0.90;;
16612;SDS011;8419;52.358;9.752;2023-04-25T10:12:50;3.28;;;0.98;;
16612;SDS011;8419;52.358;9.752;2023-04-25T10:15:38;1.98;;;0.90;;
16612;SDS011;8419;52.358;9.752;2023-04-25T10:18:25;3.03;;;1.00;;
16612;SDS011;8419;52.358;9.752;2023-04-25T10:21:11;1.73;;;0.62;;
16612;SDS011;8419;52.358;9.752;2023-04-25T10:23:59;1.83;;;0.85;;
16612;SDS011;8419;52.358;9.752;2023-04-25T10:26:47;1.77;;;0.60;;
16612;SDS011;8419;52.358;9.752;2023-04-25T10:29:34;2.17;;;0.90;;
16612;SDS011;8419;52.358;9.752;2023-04-25T10:32:20;2.90;;;1.00;;
16612;SDS011;8419;52.358;9.752;2023-04-25T10:35:12;1.65;;;0.90;;
16612;SDS011;8419;52.358;9.752;2023-04-25T10:38:02;3.30;;;0.98;;
16612;SDS011;8419;52.358;9.752;2023-04-25T10:41:02;3.30;;;1.15;;
16612;SDS011;8419;52.358;9.752;2023-04-25T10:43:50;1.55;;;0.68;;
16612;SDS011;8419;52.358;9.752;2023-04-25T10:46:46;7.22;;;1.33;;
16612;SDS011;8419;52.358;9.752;2023-04-25T10:49:32;2.55;;;1.10;;
16612;SDS011;8419;52.358;9.752;2023-04-25T10:52:24;4.82;;;1.33;;
16612;SDS011;8419;52.358;9.752;2023-04-25T10:55:12;0.60;;;0.50;;
16612;SDS011;8419;52.358;9.752;2023-04-25T10:57:58;3.42;;;1.40;;
16612;SDS011;8419;52.358;9.752;2023-04-25T11:00:45;2.60;;;1.27;;
16612;SDS011;8419;52.358;9.752;2023-04-25T11:03:30;1.90;;;0.55;;
16612;SDS011;8419;52.358;9.752;2023-04-25T11:06:20;1.55;;;0.68;;
16612;SDS011;8419;52.358;9.752;2023-04-25T11:09:09;2.97;;;0.95;;
16612;SDS011;8419;52.358;9.752;2023-04-25T11:12:03;4.68;;;1.00;;
16612;SDS011;8419;52.358;9.752;2023-04-25T11:14:49;3.47;;;1.10;;
16612;SDS011;8419;52.358;9.752;2023-04-25T11:17:34;4.05;;;1.10;;
16612;SDS011;8419;52.358;9.752;2023-04-25T11:20:19;3.78;;;1.12;;
16612;SDS011;8419;52.358;9.752;2023-04-25T11:23:05;1.62;;;0.88;;
16612;SDS011;8419;52.358;9.752;2023-04-25T11:25:50;0.80;;;0.70;;
16612;SDS011;8419;52.358;9.752;2023-04-25T11:28:36;6.80;;;1.60;;
16612;SDS011;8419;52.358;9.752;2023-04-25T11:31:24;4.20;;;1.45;;
16612;SDS011;8419;52.358;9.752;2023-04-25T11:34:09;4.32;;;0.85;;
16612;SDS011;8419;52.358;9.752;2023-04-25T11:36:54;4.10;;;1.17;;
16612;SDS011;8419;52.358;9.752;2023-04-25T11:39:44;3.87;;;1.45;;
16612;SDS011;8419;52.358;9.752;2023-04-25T11:42:30;0.20;;;0.20;;
16612;SDS011;8419;52.358;9.752;2023-04-25T11:45:16;3.53;;;1.20;;
16612;SDS011;8419;52.358;9.752;2023-04-25T11:48:02;0.40;;;0.35;;
16612;SDS011;8419;52.358;9.752;2023-04-25T11:50:48;6.55;;;1.25;;
16612;SDS011;8419;52.358;9.752;2023-04-25T11:53:34;3.42;;;1.17;;
16612;SDS011;8419;52.358;9.752;2023-04-25T11:56:21;7.43;;;1.30;;
16612;SDS011;8419;52.358;9.752;2023-04-25T11:59:06;2.25;;;0.90;;
16612;SDS011;8419;52.358;9.752;2023-04-25T12:01:51;1.58;;;0.95;;
16612;SDS011;8419;52.358;9.752;2023-04-25T12:04:41;1.85;;;0.65;;
16612;SDS011;8419;52.358;9.752;2023-04-25T12:07:28;8.48;;;1.40;;
16612;SDS011;8419;52.358;9.752;2023-04-25T12:10:14;0.52;;;0.37;;
16612;SDS011;8419;52.358;9.752;2023-04-25T12:13:17;2.20;;;1.15;;
16612;SDS011;8419;52.358;9.752;2023-04-25T12:16:05;2.95;;;0.85;;
16612;SDS011;8419;52.358;9.752;2023-04-25T12:18:51;5.25;;;0.80;;
16612;SDS011;8419;52.358;9.752;2023-04-25T12:21:37;0.95;;;0.57;;
16612;SDS011;8419;52.358;9.752;2023-04-25T12:24:23;0.73;;;0.57;;
16612;SDS011;8419;52.358;9.752;2023-04-25T12:27:09;4.28;;;0.80;;
16612;SDS011;8419;52.358;9.752;2023-04-25T12:30:00;3.10;;;0.65;;
16612;SDS011;8419;52.358;9.752;2023-04-25T12:32:48;1.83;;;0.80;;
16612;SDS011;8419;52.358;9.752;2023-04-25T12:35:33;0.85;;;0.50;;
16612;SDS011;8419;52.358;9.752;2023-04-25T12:38:27;1.48;;;0.60;;
16612;SDS011;8419;52.358;9.752;2023-04-25T12:41:13;0.45;;;0.32;;
16612;SDS011;8419;52.358;9.752;2023-04-25T12:43:59;4.62;;;0.93;;
16612;SDS011;8419;52.358;9.752;2023-04-25T12:46:44;0.35;;;0.35;;
16612;SDS011;8419;52.358;9.752;2023-04-25T12:49:31;1.17;;;0.50;;
16612;SDS011;8419;52.358;9.752;2023-04-25T12:52:17;0.57;;;0.50;;
16612;SDS011;8419;52.358;9.752;2023-04-25T12:55:03;1.77;;;0.73;;
16612;SDS011;8419;52.358;9.752;2023-04-25T12:57:50;1.52;;;0.70;;
16612;SDS011;8419;52.358;9.752;2023-04-25T13:00:37;0.95;;;0.50;;
16612;SDS011;8419;52.358;9.752;2023-04-25T13:03:23;1.08;;;0.43;;
16612;SDS011;8419;52.358;9.752;2023-04-25T13:06:09;1.12;;;0.68;;
16612;SDS011;8419;52.358;9.752;2023-04-25T13:08:54;0.45;;;0.40;;
16612;SDS011;8419;52.358;9.752;2023-04-25T13:11:39;1.75;;;0.60;;
16612;SDS011;8419;52.358;9.752;2023-04-25T13:14:25;1.40;;;0.55;;
16612;SDS011;8419;52.358;9.752;2023-04-25T13:17:10;2.47;;;0.75;;
16612;SDS011;8419;52.358;9.752;2023-04-25T13:19:55;0.62;;;0.35;;
16612;SDS011;8419;52.358;9.752;2023-04-25T13:22:41;2.10;;;0.90;;
16612;SDS011;8419;52.358;9.752;2023-04-25T13:25:29;0.85;;;0.73;;
16612;SDS011;8419;52.358;9.752;2023-04-25T13:28:14;0.75;;;0.40;;
16612;SDS011;8419;52.358;9.752;2023-04-25T13:31:00;1.80;;;0.70;;
16612;SDS011;8419;52.358;9.752;2023-04-25T13:33:45;3.37;;;1.02;;
16612;SDS011;8419;52.358;9.752;2023-04-25T13:36:31;3.40;;;1.15;;
16612;SDS011;8419;52.358;9.752;2023-04-25T13:39:17;3.10;;;1.08;;
16612;SDS011;8419;52.358;9.752;2023-04-25T13:42:04;1.65;;;0.82;;
16612;SDS011;8419;52.358;9.752;2023-04-25T13:44:50;1.08;;;0.90;;
16612;SDS011;8419;52.358;9.752;2023-04-25T13:47:35;1.58;;;0.80;;
16612;SDS011;8419;52.358;9.752;2023-04-25T13:50:20;0.93;;;0.85;;
16612;SDS011;8419;52.358;9.752;2023-04-25T13:53:07;4.20;;;0.98;;
16612;SDS011;8419;52.358;9.752;2023-04-25T13:55:53;2.28;;;0.80;;
16612;SDS011;8419;52.358;9.752;2023-04-25T13:58:38;1.67;;;1.30;;
16612;SDS011;8419;52.358;9.752;2023-04-25T14:01:24;2.80;;;1.10;;
16612;SDS011;8419;52.358;9.752;2023-04-25T14:04:11;1.33;;;0.85;;
16612;SDS011;8419;52.358;9.752;2023-04-25T14:06:56;4.75;;;1.08;;
16612;SDS011;8419;52.358;9.752;2023-04-25T14:09:41;5.05;;;1.35;;
16612;SDS011;8419;52.358;9.752;2023-04-25T14:12:27;3.30;;;0.90;;
16612;SDS011;8419;52.358;9.752;2023-04-25T14:15:13;3.30;;;1.02;;
16612;SDS011;8419;52.358;9.752;2023-04-25T14:17:59;2.10;;;1.17;;
16612;SDS011;8419;52.358;9.752;2023-04-25T14:20:46;3.60;;;1.00;;
16612;SDS011;8419;52.358;9.752;2023-04-25T14:23:32;3.53;;;1.10;;
16612;SDS011;8419;52.358;9.752;2023-04-25T14:26:19;3.53;;;1.30;;
16612;SDS011;8419;52.358;9.752;2023-04-25T14:29:06;2.87;;;1.00;;
16612;SDS011;8419;52.358;9.752;2023-04-25T14:31:52;3.05;;;1.02;;
16612;SDS011;8419;52.358;9.752;2023-04-25T14:34:38;3.42;;;0.82;;
16612;SDS011;8419;52.358;9.752;2023-04-25T14:37:24;1.05;;;0.65;;
16612;SDS011;8419;52.358;9.752;2023-04-25T14:40:10;3.75;;;1.00;;
16612;SDS011;8419;52.358;9.752;2023-04-25T14:42:57;2.75;;;1.10;;
16612;SDS011;8419;52.358;9.752;2023-04-25T14:45:45;2.37;;;0.90;;
16612;SDS011;8419;52.358;9.752;2023-04-25T14:48:30;1.27;;;1.15;;
16612;SDS011;8419;52.358;9.752;2023-04-25T14:51:19;2.65;;;0.98;;
16612;SDS011;8419;52.358;9.752;2023-04-25T14:54:04;1.42;;;1.00;;
16612;SDS011;8419;52.358;9.752;2023-04-25T14:56:50;2.28;;;0.90;;
16612;SDS011;8419;52.358;9.752;2023-04-25T14:59:35;3.37;;;1.25;;
16612;SDS011;8419;52.358;9.752;2023-04-25T15:02:24;0.20;;;0.20;;
16612;SDS011;8419;52.358;9.752;2023-04-25T15:05:10;2.92;;;0.90;;
16612;SDS011;8419;52.358;9.752;2023-04-25T15:07:56;1.90;;;1.00;;
16612;SDS011;8419;52.358;9.752;2023-04-25T15:10:41;0.85;;;0.70;;
16612;SDS011;8419;52.358;9.752;2023-04-25T15:13:26;1.27;;;0.73;;
16612;SDS011;8419;52.358;9.752;2023-04-25T15:16:11;3.35;;;1.12;;
16612;SDS011;8419;52.358;9.752;2023-04-25T15:18:57;1.30;;;0.95;;
16612;SDS011;8419;52.358;9.752;2023-04-25T15:21:42;1.70;;;1.12;;
16612;SDS011;8419;52.358;9.752;2023-04-25T15:24:31;2.53;;;1.12;;
16612;SDS011;8419;52.358;9.752;2023-04-25T15:27:16;2.30;;;1.00;;
16612;SDS011;8419;52.358;9.752;2023-04-25T15:30:05;1.92;;;1.08;;
16612;SDS011;8419;52.358;9.752;2023-04-25T15:32:54;2.45;;;1.33;;
16612;SDS011;8419;52.358;9.752;2023-04-25T15:35:39;1.35;;;1.12;;
16612;SDS011;8419;52.358;9.752;2023-04-25T15:38:25;2.55;;;0.90;;
16612;SDS011;8419;52.358;9.752;2023-04-25T15:41:10;1.33;;;0.80;;
16612;SDS011;8419;52.358;9.752;2023-04-25T15:43:56;1.65;;;0.75;;
16612;SDS011;8419;52.358;9.752;2023-04-25T15:46:45;2.58;;;1.05;;
16612;SDS011;8419;52.358;9.752;2023-04-25T15:49:31;3.15;;;0.95;;
16612;SDS011;8419;52.358;9.752;2023-04-25T15:52:16;3.42;;;1.20;;
16612;SDS011;8419;52.358;9.752;2023-04-25T15:55:05;2.47;;;1.10;;
16612;SDS011;8419;52.358;9.752;2023-04-25T15:57:53;3.78;;;1.10;;
16612;SDS011;8419;52.358;9.752;2023-04-25T16:00:38;3.53;;;1.27;;
16612;SDS011;8419;52.358;9.752;2023-04-25T16:03:24;1.48;;;0.77;;
16612;SDS011;8419;52.358;9.752;2023-04-25T16:06:10;2.12;;;1.08;;
16612;SDS011;8419;52.358;9.752;2023-04-25T16:08:55;3.20;;;0.82;;
16612;SDS011;8419;52.358;9.752;2023-04-25T16:11:40;3.08;;;1.10;;
16612;SDS011;8419;52.358;9.752;2023-04-25T16:14:26;1.70;;;0.93;;
16612;SDS011;8419;52.358;9.752;2023-04-25T16:17:11;1.92;;;0.73;;
16612;SDS011;8419;52.358;9.752;2023-04-25T16:19:57;4.22;;;1.23;;
16612;SDS011;8419;52.358;9.752;2023-04-25T16:22:45;3.55;;;1.20;;
16612;SDS011;8419;52.358;9.752;2023-04-25T16:25:30;1.58;;;0.70;;
16612;SDS011;8419;52.358;9.752;2023-04-25T16:28:15;0.98;;;0.70;;
16612;SDS011;8419;52.358;9.752;2023-04-25T16:31:01;2.67;;;1.12;;
16612;SDS011;8419;52.358;9.752;2023-04-25T16:33:46;7.78;;;1.77;;
16612;SDS011;8419;52.358;9.752;2023-04-25T16:36:32;3.00;;;1.45;;
16612;SDS011;8419;52.358;9.752;2023-04-25T16:39:17;3.05;;;1.30;;
16612;SDS011;8419;52.358;9.752;2023-04-25T16:42:06;2.60;;;1.25;;
16612;SDS011;8419;52.358;9.752;2023-04-25T16:44:52;1.30;;;1.10;;
16612;SDS011;8419;52.358;9.752;2023-04-25T16:47:37;2.05;;;0.77;;
16612;SDS011;8419;52.358;9.752;2023-04-25T16:50:23;3.55;;;1.20;;
16612;SDS011;8419;52.358;9.752;2023-04-25T16:53:10;6.65;;;1.17;;
16612;SDS011;8419;52.358;9.752;2023-04-25T16:55:56;1.15;;;0.57;;
16612;SDS011;8419;52.358;9.752;2023-04-25T16:58:41;2.37;;;0.93;;
16612;SDS011;8419;52.358;9.752;2023-04-25T17:01:27;5.62;;;1.52;;
16612;SDS011;8419;52.358;9.752;2023-04-25T17:04:14;2.47;;;0.65;;
16612;SDS011;8419;52.358;9.752;2023-04-25T17:23:58;4.45;;;1.33;;